Time;durP1;ratioP1;P1;durP2;ratioP2;P2;SDS_P1;SDS_P2;PMS_P1;PMS_P2;Temp;Humidity;BMP_temperature;BMP_pressure;BME280_temperature;BME280_humidity;BME280_pressure;Samples;Min_cycle;Max_cycle;Signal;HPM_P1;HPM_P2
2021/04/09 00:00:06;;;;;;;10.57;4.22;;;5.40;77.20;;;;;;4976059;28;20022;-79
2021/04/09 00:02:32;;;;;;;8.73;4.38;;;5.40;77.20;;;;;;4974405;28;20038;-79
2021/04/09 00:04:58;;;;;;;7.88;4.55;;;5.50;77.10;;;;;;4974280;28;20038;-80
2021/04/09 00:07:24;;;;;;;12.13;4.53;;;5.40;77.20;;;;;;4973801;28;20432;-81
2021/04/09 00:09:49;;;;;;;8.30;4.63;;;5.40;77.10;;;;;;4973942;28;20415;-81
2021/04/09 00:12:15;;;;;;;6.95;4.22;;;5.50;77.20;;;;;;4990749;28;20501;-82
2021/04/09 00:14:41;;;;;;;11.02;5.15;;;5.40;77.20;;;;;;4973562;28;20109;-79
2021/04/09 00:17:07;;;;;;;15.93;4.90;;;5.40;77.30;;;;;;4973086;28;20053;-80
2021/04/09 00:19:33;;;;;;;11.30;4.80;;;5.40;77.40;;;;;;4974154;28;20073;-79
2021/04/09 00:21:58;;;;;;;9.65;5.05;;;5.40;77.50;;;;;;4973910;28;20042;-80
2021/04/09 00:24:26;;;;;;;12.70;4.90;;;5.40;77.40;;;;;;4990955;28;20459;-79
2021/04/09 00:26:52;;;;;;;9.32;4.40;;;5.50;77.30;;;;;;4973979;28;20034;-79
2021/04/09 00:29:21;;;;;;;10.85;4.20;;;5.40;77.40;;;;;;4988919;28;20031;-79
2021/04/09 00:31:46;;;;;;;11.40;4.57;;;5.40;77.60;;;;;;4972904;28;20031;-80
2021/04/09 00:34:12;;;;;;;13.55;4.75;;;5.40;77.70;;;;;;4973754;28;20113;-81
2021/04/09 00:36:38;;;;;;;12.38;4.82;;;5.30;77.50;;;;;;4973906;28;20042;-80
2021/04/09 00:39:06;;;;;;;7.97;3.72;;;5.30;77.80;;;;;;4990509;28;20361;-80
2021/04/09 00:41:32;;;;;;;11.30;5.35;;;5.30;78.50;;;;;;4973552;28;20039;-80
2021/04/09 00:43:58;;;;;;;9.18;4.75;;;5.30;77.90;;;;;;4973402;28;20035;-79
2021/04/09 00:46:24;;;;;;;10.13;4.50;;;5.40;78.00;;;;;;4988887;28;20464;-78
2021/04/09 00:48:50;;;;;;;11.82;4.68;;;5.40;78.00;;;;;;4973766;28;20023;-79
2021/04/09 00:51:16;;;;;;;11.10;4.55;;;5.40;77.80;;;;;;4975218;28;20026;-79
2021/04/09 00:53:43;;;;;;;10.10;4.45;;;5.40;77.70;;;;;;4973338;28;20039;-78
2021/04/09 00:56:14;;;;;;;11.02;3.97;;;5.30;78.10;;;;;;4973445;28;20469;-81
2021/04/09 00:58:40;;;;;;;13.95;4.75;;;5.30;78.80;;;;;;4973696;28;20046;-80
2021/04/09 01:01:06;;;;;;;10.50;3.70;;;5.30;77.90;;;;;;4988191;28;20361;-80
2021/04/09 01:03:33;;;;;;;9.90;4.15;;;5.30;77.90;;;;;;4974882;28;20045;-80
2021/04/09 01:06:01;;;;;;;8.20;4.22;;;5.20;77.90;;;;;;4973721;28;20034;-79
2021/04/09 01:08:26;;;;;;;8.30;4.03;;;5.40;78.20;;;;;;4973269;28;20516;-79
2021/04/09 01:10:52;;;;;;;11.93;3.95;;;5.30;78.10;;;;;;4973469;28;20054;-79
2021/04/09 01:13:18;;;;;;;12.18;3.90;;;5.30;78.20;;;;;;4973201;28;20109;-80
2021/04/09 01:15:43;;;;;;;8.20;3.80;;;5.30;78.00;;;;;;4972992;28;20050;-80
2021/04/09 01:18:29;;;;;;;11.05;4.05;;;5.30;78.00;;;;;;4974691;28;20135;-79
2021/04/09 01:21:09;;;;;;;8.60;4.13;;;5.30;78.00;;;;;;4973262;28;20149;-81
2021/04/09 01:23:51;;;;;;;9.82;4.18;;;5.30;78.00;;;;;;4972921;28;20089;-80
2021/04/09 01:26:58;;;;;;;7.82;3.75;;;5.40;78.10;;;;;;4957300;28;20110;-81
2021/04/09 01:29:32;;;;;;;7.85;4.07;;;5.30;78.20;;;;;;4972643;28;20531;-79
2021/04/09 01:32:02;;;;;;;9.48;3.83;;;5.30;78.40;;;;;;4972594;28;20035;-80
2021/04/09 01:34:34;;;;;;;6.93;3.75;;;5.40;78.60;;;;;;4971680;28;20043;-79
2021/04/09 01:37:13;;;;;;;11.18;4.50;;;5.40;78.40;;;;;;5007650;28;20119;-78
2021/04/09 01:39:47;;;;;;;11.18;3.85;;;5.40;78.40;;;;;;5010681;28;20037;-79
2021/04/09 01:42:13;;;;;;;11.20;3.92;;;5.40;78.40;;;;;;5013039;28;20064;-77
2021/04/09 01:44:45;;;;;;;8.18;4.03;;;5.40;78.40;;;;;;5011553;28;20049;-78
2021/04/09 01:47:13;;;;;;;9.13;4.05;;;5.40;78.60;;;;;;5011081;28;20371;-78
2021/04/09 01:49:40;;;;;;;11.98;4.47;;;5.50;78.20;;;;;;5011578;28;20034;-79
2021/04/09 01:52:08;;;;;;;12.45;3.83;;;5.40;78.20;;;;;;5011091;28;20128;-75
2021/04/09 01:54:36;;;;;;;12.75;4.07;;;5.50;78.00;;;;;;5011012;28;20034;-77
2021/04/09 01:57:03;;;;;;;8.55;3.55;;;5.50;78.00;;;;;;5012844;28;20033;-79
2021/04/09 01:59:32;;;;;;;10.80;4.22;;;5.50;77.70;;;;;;5011081;28;20034;-79
2021/04/09 02:01:58;;;;;;;7.75;3.65;;;5.50;77.60;;;;;;5010561;28;20053;-78
2021/04/09 02:04:26;;;;;;;12.18;4.57;;;5.60;77.60;;;;;;5011114;28;20042;-78
2021/04/09 02:06:52;;;;;;;13.43;4.15;;;5.80;77.70;;;;;;5011424;28;20111;-78
2021/04/09 02:09:21;;;;;;;8.85;4.20;;;5.70;77.30;;;;;;5012552;28;20463;-78
2021/04/09 02:11:49;;;;;;;8.27;3.92;;;5.70;77.00;;;;;;5009838;28;20120;-78
2021/04/09 02:14:16;;;;;;;10.07;3.72;;;5.80;77.00;;;;;;5009984;28;20385;-78
2021/04/09 02:16:44;;;;;;;12.65;4.85;;;5.80;76.80;;;;;;5010956;28;20128;-78
2021/04/09 02:19:09;;;;;;;11.68;3.95;;;5.80;76.80;;;;;;5010934;28;20050;-77
2021/04/09 02:21:39;;;;;;;12.30;4.10;;;5.80;76.80;;;;;;5011064;28;20018;-78
2021/04/09 02:24:06;;;;;;;8.63;4.25;;;5.90;76.90;;;;;;5012460;28;20024;-77
2021/04/09 02:26:31;;;;;;;12.90;4.70;;;5.80;76.60;;;;;;5010613;28;20038;-78
2021/04/09 02:28:59;;;;;;;12.27;4.68;;;5.90;76.70;;;;;;5011141;28;20042;-79
2021/04/09 02:31:25;;;;;;;12.13;4.15;;;5.90;76.80;;;;;;5010772;28;20040;-79
2021/04/09 02:33:51;;;;;;;10.10;4.25;;;5.90;76.80;;;;;;5010177;28;20044;-80
2021/04/09 02:36:20;;;;;;;9.80;4.65;;;5.90;76.80;;;;;;5010476;28;20435;-79
2021/04/09 02:39:14;;;;;;;9.75;4.20;;;5.90;76.80;;;;;;5010466;28;20053;-81
2021/04/09 02:41:43;;;;;;;11.35;3.95;;;5.90;76.50;;;;;;5004423;28;20064;-79
2021/04/09 02:44:09;;;;;;;9.23;4.18;;;5.90;76.40;;;;;;5010816;28;20443;-79
2021/04/09 02:46:56;;;;;;;9.25;3.65;;;5.80;76.30;;;;;;5010506;28;20634;-78
2021/04/09 02:49:40;;;;;;;11.93;4.45;;;6.00;76.40;;;;;;5010569;28;20058;-78
2021/04/09 02:52:12;;;;;;;7.10;4.43;;;6.00;76.50;;;;;;5010276;28;20026;-80
2021/04/09 02:54:38;;;;;;;10.77;3.92;;;5.90;76.20;;;;;;5010045;28;20017;-80
2021/04/09 02:57:05;;;;;;;13.40;3.80;;;6.00;76.20;;;;;;5011775;28;20030;-78
2021/04/09 02:59:32;;;;;;;10.98;4.65;;;6.00;76.20;;;;;;5009903;28;20050;-81
2021/04/09 03:01:59;;;;;;;14.05;4.00;;;6.00;76.40;;;;;;5009206;28;20061;-80
2021/04/09 03:04:29;;;;;;;13.82;4.90;;;6.00;76.30;;;;;;5009119;28;20460;-80
2021/04/09 03:06:56;;;;;;;13.93;4.85;;;6.00;76.30;;;;;;5008244;28;20088;-78
2021/04/09 03:09:23;;;;;;;13.65;4.15;;;6.00;76.30;;;;;;5010768;28;20057;-79
2021/04/09 03:11:49;;;;;;;11.60;4.75;;;6.00;76.20;;;;;;5010041;28;20064;-78
2021/04/09 03:14:15;;;;;;;11.68;4.50;;;6.00;76.30;;;;;;5009896;28;20042;-79
2021/04/09 03:16:48;;;;;;;10.40;4.15;;;6.00;76.40;;;;;;5008569;28;20071;-78
2021/04/09 03:19:14;;;;;;;13.65;4.03;;;6.10;76.60;;;;;;5009982;28;20057;-78
2021/04/09 03:21:40;;;;;;;16.25;4.53;;;6.00;76.50;;;;;;5009876;28;20026;-77
2021/04/09 03:24:07;;;;;;;8.95;4.72;;;6.00;76.50;;;;;;5010586;28;20022;-78
2021/04/09 03:26:34;;;;;;;;;;;6.00;76.50;;;;;;5009247;28;20050;-79
2021/04/09 03:29:00;;;;;;;11.20;4.28;;;6.00;76.60;;;;;;5008764;28;19910;-78
2021/04/09 03:31:26;;;;;;;10.98;4.38;;;5.90;76.50;;;;;;5009713;28;20052;-78
2021/04/09 03:33:51;;;;;;;10.77;4.40;;;6.00;76.70;;;;;;5009595;28;20036;-77
2021/04/09 03:36:18;;;;;;;12.63;4.65;;;5.90;76.80;;;;;;5011388;28;20053;-78
2021/04/09 03:38:44;;;;;;;11.00;4.30;;;5.90;77.10;;;;;;5009505;28;20420;-77
2021/04/09 03:41:09;;;;;;;15.10;4.35;;;6.00;77.10;;;;;;5009451;28;20036;-77
2021/04/09 03:43:35;;;;;;;10.77;4.05;;;6.00;76.90;;;;;;5009539;28;20502;-77
2021/04/09 03:46:01;;;;;;;11.00;4.80;;;6.00;77.00;;;;;;5009414;28;20630;-77
2021/04/09 03:48:26;;;;;;;10.40;4.32;;;5.90;77.00;;;;;;5011258;28;20061;-77
2021/04/09 03:50:52;;;;;;;10.75;4.30;;;6.00;77.20;;;;;;5009404;28;20052;-80
2021/04/09 03:53:17;;;;;;;15.40;4.72;;;6.10;77.30;;;;;;5009368;28;20080;-79
2021/04/09 03:55:43;;;;;;;8.13;3.88;;;6.00;77.20;;;;;;5008399;28;20463;-78
2021/04/09 03:58:09;;;;;;;7.78;4.50;;;6.00;77.20;;;;;;5009533;28;20042;-78
2021/04/09 04:00:34;;;;;;;9.68;3.85;;;6.00;77.40;;;;;;5009240;28;20026;-78
2021/04/09 04:03:00;;;;;;;11.07;4.45;;;6.10;77.40;;;;;;5010961;28;20033;-78
2021/04/09 04:05:26;;;;;;;9.52;4.63;;;6.10;77.40;;;;;;5009827;28;20042;-78
2021/04/09 04:07:51;;;;;;;10.45;4.72;;;6.00;77.50;;;;;;5009455;28;20076;-79
2021/04/09 04:10:17;;;;;;;9.65;4.45;;;6.10;77.70;;;;;;5009287;28;20038;-78
2021/04/09 04:12:43;;;;;;;9.85;4.70;;;6.00;78.00;;;;;;5009156;28;20083;-79
2021/04/09 04:15:09;;;;;;;10.20;5.00;;;6.00;77.90;;;;;;5010834;28;20025;-78
2021/04/09 04:17:34;;;;;;;19.85;5.50;;;6.00;77.80;;;;;;5007972;28;20038;-79
2021/04/09 04:20:00;;;;;;;14.10;6.10;;;6.00;78.10;;;;;;5009049;28;20026;-78
2021/04/09 04:22:26;;;;;;;13.68;5.00;;;6.00;77.90;;;;;;5008968;28;20041;-77
2021/04/09 04:24:53;;;;;;;13.18;5.05;;;5.90;78.10;;;;;;5007968;28;20030;-77
2021/04/09 04:27:19;;;;;;;12.30;4.70;;;5.90;78.30;;;;;;5010808;28;20034;-79
2021/04/09 04:29:44;;;;;;;11.45;4.28;;;6.00;78.30;;;;;;5007959;28;20377;-79
2021/04/09 04:32:10;;;;;;;11.85;4.47;;;6.00;78.40;;;;;;5008980;28;20467;-78
2021/04/09 04:34:36;;;;;;;14.27;5.75;;;5.90;78.40;;;;;;5008922;28;20123;-77
2021/04/09 04:37:01;;;;;;;15.57;5.03;;;6.00;78.30;;;;;;5008980;28;20679;-77
2021/04/09 04:39:27;;;;;;;8.25;4.30;;;6.00;78.20;;;;;;5014235;28;20514;-77
2021/04/09 04:41:53;;;;;;;9.68;4.47;;;6.00;78.30;;;;;;5012471;28;20042;-77
2021/04/09 04:44:18;;;;;;;12.38;5.03;;;6.00;78.40;;;;;;5012548;28;20456;-78
2021/04/09 04:46:44;;;;;;;15.57;5.88;;;6.00;78.30;;;;;;5013013;28;20042;-77
2021/04/09 04:49:10;;;;;;;15.80;5.57;;;6.00;78.30;;;;;;5011561;28;20372;-76
2021/04/09 04:51:35;;;;;;;13.98;5.30;;;6.00;78.30;;;;;;5012241;28;20444;-77
2021/04/09 04:54:01;;;;;;;14.93;4.90;;;6.00;78.20;;;;;;5013489;28;20034;-77
2021/04/09 04:56:27;;;;;;;10.63;5.05;;;6.00;78.40;;;;;;5010968;28;20057;-77
2021/04/09 04:58:52;;;;;;;13.95;4.80;;;6.00;78.20;;;;;;5012000;28;20049;-77
2021/04/09 05:01:18;;;;;;;12.35;5.25;;;6.10;78.30;;;;;;5011382;28;20513;-78
2021/04/09 05:03:43;;;;;;;9.55;4.72;;;6.20;78.00;;;;;;5012524;28;20048;-77
2021/04/09 05:06:09;;;;;;;10.38;4.85;;;6.20;77.80;;;;;;5013669;28;20022;-79
2021/04/09 05:08:35;;;;;;;10.88;4.90;;;6.30;78.00;;;;;;5011696;28;20065;-78
2021/04/09 05:11:00;;;;;;;14.73;4.88;;;6.30;77.70;;;;;;5011837;28;20426;-78
2021/04/09 05:13:26;;;;;;;16.55;4.93;;;6.40;77.80;;;;;;5011935;28;20038;-78
2021/04/09 05:15:51;;;;;;;15.88;5.38;;;6.30;77.60;;;;;;5011532;28;20022;-76
2021/04/09 05:18:17;;;;;;;16.27;4.75;;;6.40;77.70;;;;;;5013834;28;20049;-78
2021/04/09 05:20:43;;;;;;;15.77;5.78;;;6.40;77.70;;;;;;5010441;28;20037;-77
2021/04/09 05:23:08;;;;;;;14.25;4.70;;;6.30;77.40;;;;;;5010465;28;20041;-77
2021/04/09 05:25:34;;;;;;;16.17;5.07;;;6.30;77.60;;;;;;5009446;28;20372;-76
2021/04/09 05:28:00;;;;;;;12.90;5.57;;;6.40;77.60;;;;;;5007505;28;20065;-76
2021/04/09 05:30:25;;;;;;;15.75;5.38;;;6.50;77.60;;;;;;4993837;28;20030;-76
2021/04/09 05:32:53;;;;;;;18.90;5.15;;;6.50;77.40;;;;;;4992138;28;20060;-77
2021/04/09 05:35:21;;;;;;;8.93;4.90;;;6.50;77.40;;;;;;4992240;28;20124;-75
2021/04/09 05:37:47;;;;;;;15.55;5.93;;;6.60;77.10;;;;;;4992159;28;20308;-77
2021/04/09 05:40:13;;;;;;;13.13;5.90;;;6.60;77.30;;;;;;4990807;28;20120;-75
2021/04/09 05:42:39;;;;;;;12.60;5.15;;;6.60;77.30;;;;;;4990755;28;20018;-79
2021/04/09 05:45:05;;;;;;;14.23;5.20;;;6.70;77.30;;;;;;4993756;28;20054;-72
2021/04/09 05:47:31;;;;;;;10.52;4.90;;;6.80;77.20;;;;;;4990441;28;20034;-73
2021/04/09 05:49:56;;;;;;;16.25;5.55;;;6.80;77.60;;;;;;4989687;28;20046;-73
2021/04/09 05:52:22;;;;;;;10.90;4.80;;;6.90;76.90;;;;;;4990814;28;20142;-74
2021/04/09 05:54:48;;;;;;;14.50;5.72;;;6.90;77.20;;;;;;4991529;28;20035;-72
2021/04/09 05:57:13;;;;;;;16.40;6.28;;;7.00;77.00;;;;;;4993037;28;20136;-72
2021/04/09 05:59:39;;;;;;;10.98;4.55;;;7.10;76.80;;;;;;4990417;28;20045;-70
2021/04/09 06:02:05;;;;;;;13.95;4.43;;;7.20;76.70;;;;;;4991441;28;20026;-70
2021/04/09 06:04:30;;;;;;;11.95;4.60;;;7.20;76.50;;;;;;4991548;28;20475;-71
2021/04/09 06:06:56;;;;;;;14.43;5.07;;;7.20;76.30;;;;;;4991401;28;20038;-72
2021/04/09 06:09:22;;;;;;;12.38;4.82;;;7.30;76.30;;;;;;4992769;28;20464;-71
2021/04/09 06:11:48;;;;;;;12.75;5.72;;;7.40;76.30;;;;;;4991296;28;20030;-73
2021/04/09 06:14:16;;;;;;;15.35;5.15;;;7.40;76.00;;;;;;4990749;28;20718;-74
2021/04/09 06:16:42;;;;;;;;;;;7.40;75.80;;;;;;4990543;28;20168;-74
2021/04/09 06:19:07;;;;;;;13.52;5.65;;;7.40;75.90;;;;;;4990372;28;20551;-76
2021/04/09 06:21:33;;;;;;;12.23;5.55;;;7.50;76.10;;;;;;4989545;28;20041;-74
2021/04/09 06:23:58;;;;;;;14.90;5.20;;;7.50;76.30;;;;;;4992717;28;20031;-74
2021/04/09 06:26:24;;;;;;;13.50;5.00;;;7.60;76.00;;;;;;4990957;28;20614;-74
2021/04/09 06:28:52;;;;;;;12.88;5.10;;;7.60;75.90;;;;;;4990586;28;20038;-73
2021/04/09 06:31:17;;;;;;;15.20;5.85;;;7.70;75.80;;;;;;4989451;28;20100;-75
2021/04/09 06:33:43;;;;;;;13.07;5.55;;;7.80;75.80;;;;;;4989364;28;20022;-74
2021/04/09 06:36:09;;;;;;;15.18;5.25;;;7.80;75.60;;;;;;4990869;28;20146;-75
2021/04/09 06:38:34;;;;;;;17.17;5.03;;;7.90;75.60;;;;;;4990153;28;20038;-75
2021/04/09 06:41:02;;;;;;;8.93;4.78;;;7.90;75.40;;;;;;4989513;28;20026;-74
2021/04/09 06:43:27;;;;;;;17.83;5.95;;;8.00;75.80;;;;;;4990676;28;20120;-76
2021/04/09 06:45:53;;;;;;;8.07;4.50;;;8.00;75.20;;;;;;4989932;28;20097;-77
2021/04/09 06:48:19;;;;;;;13.80;5.00;;;8.10;75.20;;;;;;4990847;28;20058;-74
2021/04/09 06:50:47;;;;;;;14.10;4.80;;;8.20;74.90;;;;;;4990156;28;20043;-73
2021/04/09 06:53:13;;;;;;;13.15;5.25;;;8.30;74.60;;;;;;4990075;28;20092;-74
2021/04/09 06:55:48;;;;;;;18.02;5.47;;;8.30;74.60;;;;;;4989232;28;20034;-74
2021/04/09 06:58:16;;;;;;;12.13;4.97;;;8.50;74.50;;;;;;4989985;28;20042;-74
2021/04/09 07:00:43;;;;;;;14.05;6.45;;;8.50;74.30;;;;;;4989911;28;20173;-77
2021/04/09 07:03:09;;;;;;;12.70;4.68;;;8.60;73.50;;;;;;4991664;28;20088;-73
2021/04/09 07:05:37;;;;;;;17.95;5.90;;;8.60;73.30;;;;;;4989500;28;20046;-71
2021/04/09 07:08:03;;;;;;;10.75;5.43;;;8.80;74.00;;;;;;4989698;28;20038;-71
2021/04/09 07:10:29;;;;;;;32.15;6.70;;;8.80;73.50;;;;;;4989024;28;20045;-74
2021/04/09 07:13:12;;;;;;;13.57;5.82;;;8.90;73.40;;;;;;4990233;28;20125;-72
2021/04/09 07:15:45;;;;;;;13.27;5.50;;;8.90;73.10;;;;;;4988564;28;20022;-73
2021/04/09 07:18:12;;;;;;;12.45;5.00;;;9.00;72.90;;;;;;4991525;28;20046;-76
2021/04/09 07:20:39;;;;;;;15.70;5.38;;;9.00;72.60;;;;;;4989596;28;20102;-74
2021/04/09 07:23:07;;;;;;;13.68;5.28;;;9.10;72.70;;;;;;4989924;28;20093;-73
2021/04/09 07:25:37;;;;;;;12.35;5.45;;;9.10;72.40;;;;;;4990303;28;20031;-72
2021/04/09 07:28:20;;;;;;;14.02;4.60;;;9.20;72.20;;;;;;4989639;28;20096;-72
2021/04/09 07:30:54;;;;;;;12.70;5.47;;;9.30;72.00;;;;;;4989633;28;20452;-72
2021/04/09 07:33:24;;;;;;;11.80;5.78;;;9.20;71.60;;;;;;4991125;28;20113;-72
2021/04/09 07:36:00;;;;;;;15.73;5.45;;;9.40;72.10;;;;;;4989154;28;20058;-72
2021/04/09 07:38:32;;;;;;;17.63;5.70;;;9.40;71.60;;;;;;4988232;28;20057;-74
2021/04/09 07:41:01;;;;;;;11.85;5.18;;;9.50;71.60;;;;;;4989398;28;20045;-73
2021/04/09 07:43:31;;;;;;;13.40;5.22;;;9.50;71.50;;;;;;4989756;28;20124;-73
2021/04/09 07:45:59;;;;;;;15.23;6.03;;;9.70;71.60;;;;;;4988388;28;20038;-71
2021/04/09 07:48:34;;;;;;;19.05;6.05;;;9.70;71.50;;;;;;4990956;28;20352;-74
2021/04/09 07:51:00;;;;;;;13.38;5.60;;;9.80;71.30;;;;;;4990541;28;20118;-73
2021/04/09 07:53:32;;;;;;;14.32;6.13;;;9.90;71.30;;;;;;4988145;28;20035;-75
2021/04/09 07:56:06;;;;;;;17.10;5.63;;;9.90;71.10;;;;;;4989406;28;20479;-77
2021/04/09 07:58:32;;;;;;;16.30;5.75;;;9.90;71.00;;;;;;4989280;28;20034;-78
2021/04/09 08:00:58;;;;;;;14.43;6.00;;;10.00;69.70;;;;;;4989530;28;20117;-75
2021/04/09 08:03:38;;;;;;;13.57;5.15;;;10.00;69.70;;;;;;4990158;28;20456;-74
2021/04/09 08:06:11;;;;;;;18.67;5.40;;;10.20;69.80;;;;;;4989829;28;20120;-76
2021/04/09 08:08:47;;;;;;;13.85;6.80;;;10.20;69.40;;;;;;4989410;28;20034;-74
2021/04/09 08:11:33;;;;;;;11.82;5.57;;;10.30;70.10;;;;;;4988091;28;20100;-75
2021/04/09 08:14:10;;;;;;;21.85;6.25;;;10.70;70.10;;;;;;4992799;28;20042;-75
2021/04/09 08:16:36;;;;;;;9.68;5.15;;;11.80;69.40;;;;;;4993066;28;20113;-75
2021/04/09 08:19:09;;;;;;;15.05;5.45;;;12.90;68.10;;;;;;4992838;28;20113;-75
2021/04/09 08:21:38;;;;;;;11.02;5.25;;;13.80;65.90;;;;;;4992768;28;20029;-76
2021/04/09 08:24:05;;;;;;;13.48;5.75;;;14.50;62.30;;;;;;4994608;28;20408;-76
2021/04/09 08:26:30;;;;;;;16.08;6.05;;;14.50;60.50;;;;;;4993061;28;20049;-76
2021/04/09 08:28:57;;;;;;;12.50;5.35;;;14.90;59.70;;;;;;4993036;28;20042;-77
2021/04/09 08:31:23;;;;;;;14.23;6.03;;;15.60;58.60;;;;;;4992734;28;20456;-74
2021/04/09 08:33:49;;;;;;;12.27;5.80;;;16.10;56.20;;;;;;4993186;28;20417;-76
2021/04/09 08:36:16;;;;;;;11.38;5.70;;;16.90;55.20;;;;;;4994106;28;20134;-77
2021/04/09 08:38:43;;;;;;;11.25;5.55;;;17.80;53.00;;;;;;4992491;28;20130;-76
2021/04/09 08:41:10;;;;;;;12.43;6.03;;;18.00;51.30;;;;;;4992726;28;20053;-76
2021/04/09 08:43:36;;;;;;;11.93;5.93;;;17.60;50.20;;;;;;4991734;28;20069;-73
2021/04/09 08:46:01;;;;;;;15.27;6.75;;;18.10;49.50;;;;;;4992153;28;20463;-72
2021/04/09 08:48:28;;;;;;;13.00;5.07;;;18.50;48.00;;;;;;4993911;28;20076;-73
2021/04/09 08:50:54;;;;;;;16.23;6.45;;;18.80;47.60;;;;;;4992651;28;20512;-75
2021/04/09 08:53:25;;;;;;;13.75;6.03;;;18.20;46.20;;;;;;4991295;28;20042;-75
2021/04/09 08:55:51;;;;;;;14.40;5.93;;;17.80;46.70;;;;;;4992580;28;20038;-76
2021/04/09 08:58:17;;;;;;;15.40;8.25;;;17.70;47.00;;;;;;4992531;28;20414;-75
2021/04/09 09:00:44;;;;;;;16.40;7.05;;;17.50;47.10;;;;;;4991179;28;20233;-74
2021/04/09 09:03:24;;;;;;;12.40;5.80;;;17.00;47.90;;;;;;4993625;28;20037;-75
2021/04/09 09:06:02;;;;;;;13.23;5.75;;;16.90;48.00;;;;;;4992416;28;20030;-73
2021/04/09 09:08:43;;;;;;;16.80;5.70;;;17.20;48.90;;;;;;4992057;28;20037;-75
2021/04/09 09:11:10;;;;;;;12.55;6.10;;;17.40;48.00;;;;;;4991361;28;20039;-73
2021/04/09 09:13:43;;;;;;;11.82;5.32;;;17.80;47.90;;;;;;4992374;28;20042;-73
2021/04/09 09:16:18;;;;;;;12.30;5.63;;;18.00;46.90;;;;;;4992507;28;20053;-73
2021/04/09 09:18:52;;;;;;;13.95;5.57;;;18.30;48.00;;;;;;4990755;28;20080;-74
2021/04/09 09:21:19;;;;;;;10.55;5.22;;;17.90;47.20;;;;;;4993367;28;20027;-74
2021/04/09 09:23:56;;;;;;;12.68;5.50;;;18.20;46.50;;;;;;4991929;28;20065;-73
2021/04/09 09:26:28;;;;;;;9.87;5.20;;;18.90;46.50;;;;;;4991961;28;20104;-75
2021/04/09 09:29:13;;;;;;;9.90;5.35;;;19.70;44.30;;;;;;4991976;28;20820;-76
2021/04/09 09:31:40;;;;;;;9.98;5.00;;;20.20;44.50;;;;;;4991052;28;20054;-74
2021/04/09 09:34:21;;;;;;;9.65;5.32;;;21.10;43.70;;;;;;4991541;28;20448;-74
2021/04/09 09:37:07;;;;;;;16.08;4.95;;;22.70;42.00;;;;;;4991257;28;20138;-74
2021/04/09 09:39:47;;;;;;;11.80;4.90;;;21.70;38.50;;;;;;4992934;28;20471;-74
2021/04/09 09:42:33;;;;;;;9.13;4.82;;;21.40;39.60;;;;;;4992190;28;20061;-76
2021/04/09 09:44:59;;;;;;;7.93;4.60;;;21.00;38.70;;;;;;4990949;28;20027;-73
2021/04/09 09:47:32;;;;;;;9.57;3.95;;;21.30;40.60;;;;;;4991348;28;20056;-75
2021/04/09 09:50:04;;;;;;;8.57;3.50;;;20.60;39.50;;;;;;4991394;28;20338;-76
2021/04/09 09:52:58;;;;;;;9.63;3.92;;;21.70;39.80;;;;;;4991425;28;20054;-76
2021/04/09 09:55:37;;;;;;;8.75;4.00;;;20.40;37.80;;;;;;4991498;28;20030;-74
2021/04/09 09:58:22;;;;;;;8.73;4.07;;;20.90;39.50;;;;;;4990974;28;20117;-74
2021/04/09 10:00:53;;;;;;;5.75;3.45;;;21.00;39.30;;;;;;4991183;28;20019;-75
2021/04/09 10:03:20;;;;;;;5.88;3.10;;;20.50;39.00;;;;;;4993033;28;20053;-75
2021/04/09 10:05:50;;;;;;;;;;;20.40;39.20;;;;;;4991623;28;20105;-76
2021/04/09 10:08:18;;;;;;;7.72;3.08;;;20.90;38.60;;;;;;4991340;28;20475;-76
2021/04/09 10:10:54;;;;;;;4.47;3.00;;;20.20;38.40;;;;;;4989826;28;20093;-76
2021/04/09 10:13:30;;;;;;;4.43;2.85;;;19.70;39.90;;;;;;4990900;28;20039;-74
2021/04/09 10:16:16;;;;;;;4.43;2.75;;;19.00;40.10;;;;;;4990993;28;20086;-75
2021/04/09 10:18:43;;;;;;;7.88;2.90;;;18.70;41.30;;;;;;4990721;28;20041;-74
2021/04/09 10:21:24;;;;;;;5.88;3.42;;;18.20;41.90;;;;;;4991448;28;20034;-75
2021/04/09 10:24:01;;;;;;;8.98;3.30;;;17.90;42.60;;;;;;4991532;28;20042;-74
2021/04/09 10:26:27;;;;;;;4.00;2.80;;;17.50;43.10;;;;;;4990762;28;20038;-74
2021/04/09 10:28:53;;;;;;;7.88;3.00;;;17.30;43.90;;;;;;4990661;28;20050;-73
2021/04/09 10:31:20;;;;;;;5.18;3.03;;;17.20;44.40;;;;;;4990544;28;20045;-73
2021/04/09 10:33:51;;;;;;;5.78;2.95;;;17.00;44.90;;;;;;4989210;28;20412;-74
2021/04/09 10:36:30;;;;;;;7.80;3.05;;;16.80;45.30;;;;;;4991474;28;20119;-73
2021/04/09 10:39:00;;;;;;;9.20;3.38;;;16.60;45.50;;;;;;4990591;28;20385;-74
2021/04/09 10:41:32;;;;;;;14.50;4.07;;;16.60;46.30;;;;;;4989137;28;20101;-73
2021/04/09 10:43:59;;;;;;;6.43;3.63;;;16.70;46.20;;;;;;4990584;28;20105;-72
2021/04/09 10:46:27;;;;;;;8.13;3.47;;;16.20;46.90;;;;;;4990075;28;20038;-77
2021/04/09 10:49:10;;;;;;;6.45;3.53;;;16.50;47.10;;;;;;4990195;28;20054;-73
2021/04/09 10:51:45;;;;;;;6.53;3.35;;;16.50;46.90;;;;;;4990041;28;20022;-74
2021/04/09 10:54:26;;;;;;;5.40;3.47;;;16.50;47.30;;;;;;4988800;28;20041;-74
2021/04/09 10:57:01;;;;;;;8.38;4.43;;;16.80;46.80;;;;;;4989951;28;20465;-76
2021/04/09 10:59:27;;;;;;;7.68;3.53;;;16.80;46.90;;;;;;4988644;28;20031;-77
2021/04/09 11:01:53;;;;;;;5.32;2.95;;;16.90;46.70;;;;;;4988472;28;20377;-73
2021/04/09 11:04:19;;;;;;;5.93;3.10;;;16.70;46.10;;;;;;4990366;28;20038;-73
2021/04/09 11:06:50;;;;;;;7.22;3.80;;;16.50;46.60;;;;;;4990326;28;20030;-75
2021/04/09 11:09:15;;;;;;;9.88;3.35;;;16.50;47.00;;;;;;4989869;28;20460;-75
2021/04/09 11:11:41;;;;;;;5.50;2.80;;;16.60;46.70;;;;;;4989557;28;20054;-75
2021/04/09 11:14:14;;;;;;;5.05;2.67;;;16.60;47.00;;;;;;4989639;28;20069;-73
2021/04/09 11:16:51;;;;;;;8.73;3.22;;;16.80;46.80;;;;;;4989701;28;20112;-73
2021/04/09 11:19:37;;;;;;;4.30;2.95;;;16.90;46.70;;;;;;4988012;28;20034;-74
2021/04/09 11:22:06;;;;;;;6.97;3.00;;;16.90;46.20;;;;;;4990208;28;20031;-73
2021/04/09 11:24:37;;;;;;;4.88;2.78;;;17.00;46.20;;;;;;4991229;28;20030;-73
2021/04/09 11:27:25;;;;;;;5.28;2.75;;;17.10;46.30;;;;;;4989810;28;20061;-73
2021/04/09 11:30:05;;;;;;;6.15;2.83;;;16.90;45.80;;;;;;4990035;28;20112;-74
2021/04/09 11:32:38;;;;;;;7.78;2.92;;;16.60;45.60;;;;;;4989755;28;20042;-73
2021/04/09 11:35:08;;;;;;;5.60;2.80;;;16.80;46.30;;;;;;4989258;28;20039;-74
2021/04/09 11:37:42;;;;;;;7.70;3.53;;;16.60;46.50;;;;;;4989373;28;20610;-73
2021/04/09 11:40:09;;;;;;;5.80;3.20;;;16.70;47.20;;;;;;4989594;28;20058;-73
2021/04/09 11:42:36;;;;;;;7.47;3.03;;;16.70;46.60;;;;;;4989289;28;20420;-74
2021/04/09 11:45:05;;;;;;;4.90;2.80;;;16.90;46.90;;;;;;4991095;28;20084;-74
2021/04/09 11:47:36;;;;;;;7.47;3.40;;;16.60;46.90;;;;;;4990546;28;20027;-75
2021/04/09 11:50:17;;;;;;;8.85;3.08;;;16.60;46.90;;;;;;4993715;28;20069;-74
2021/04/09 11:53:04;;;;;;;8.57;3.20;;;16.30;46.90;;;;;;4992183;28;20492;-72
2021/04/09 11:55:38;;;;;;;12.63;3.35;;;16.40;47.30;;;;;;4993800;28;20114;-74
2021/04/09 11:58:20;;;;;;;5.35;3.13;;;16.20;47.60;;;;;;4993242;28;20034;-73
2021/04/09 12:01:00;;;;;;;5.57;2.97;;;15.90;48.20;;;;;;4993398;28;20041;-73
2021/04/09 12:03:43;;;;;;;9.00;2.90;;;15.70;48.20;;;;;;4994821;28;20364;-75
2021/04/09 12:06:14;;;;;;;6.47;3.30;;;15.50;48.60;;;;;;4993665;28;20072;-72
2021/04/09 12:08:40;;;;;;;7.80;2.85;;;15.40;48.90;;;;;;4993091;28;20057;-72
2021/04/09 12:11:08;;;;;;;8.52;3.33;;;15.40;49.20;;;;;;4992995;28;20118;-74
2021/04/09 12:13:38;;;;;;;8.02;3.65;;;15.30;49.70;;;;;;4993259;28;20050;-74
2021/04/09 12:16:05;;;;;;;10.50;4.07;;;15.30;49.90;;;;;;4993048;28;20118;-73
2021/04/09 12:18:31;;;;;;;10.45;3.95;;;15.30;50.20;;;;;;4994413;28;20034;-73
2021/04/09 12:20:58;;;;;;;10.98;3.20;;;15.30;50.20;;;;;;4992285;28;20045;-71
2021/04/09 12:23:25;;;;;;;7.80;3.13;;;15.40;50.40;;;;;;4993001;28;20062;-72
2021/04/09 12:25:53;;;;;;;9.35;3.05;;;15.20;50.00;;;;;;4992943;28;20042;-71
2021/04/09 12:28:19;;;;;;;5.50;3.08;;;15.20;50.20;;;;;;4991648;28;20451;-72
2021/04/09 12:30:44;;;;;;;6.40;3.17;;;15.20;50.40;;;;;;4992817;28;20041;-71
2021/04/09 12:33:10;;;;;;;9.13;3.25;;;15.00;50.20;;;;;;4994191;28;20038;-72
2021/04/09 12:35:35;;;;;;;8.20;3.20;;;15.10;50.40;;;;;;4992738;28;20026;-73
2021/04/09 12:38:01;;;;;;;5.40;2.60;;;15.00;50.20;;;;;;4992619;28;20040;-71
2021/04/09 12:40:26;;;;;;;11.85;3.45;;;14.90;49.90;;;;;;4991660;28;20030;-72
2021/04/09 12:42:52;;;;;;;6.32;2.78;;;14.90;50.30;;;;;;4993028;28;20104;-70
2021/04/09 12:45:18;;;;;;;8.82;2.83;;;14.90;50.60;;;;;;4994186;28;20106;-72
2021/04/09 12:47:44;;;;;;;6.10;2.67;;;15.10;50.70;;;;;;4992345;28;20125;-71
2021/04/09 12:50:10;;;;;;;7.43;2.80;;;15.20;50.70;;;;;;4992483;28;20034;-71
2021/04/09 12:52:36;;;;;;;6.85;2.92;;;15.10;50.50;;;;;;4992358;28;20042;-73
2021/04/09 12:55:02;;;;;;;4.53;2.53;;;15.20;50.40;;;;;;4990920;28;20061;-73
2021/04/09 12:57:27;;;;;;;8.85;3.60;;;15.20;50.60;;;;;;4994277;28;20393;-75